Aérodrome :
LOGIN :

S'inscrire | Disclaimer

   EN    FR    IT 

 










Légende :    VFR   VFR Marginal   IFR   IFR Intensif   IFR Très Intensif
Visi : 
Plafond : 
>= 8 km
>= 3000ft
5 à 8 km
1000 à 3000 ft
1500m à 5 km
500 à 1000 ft
800 à 1500m
200 à 500 ft
< 800m
< 200 ft
Symboles :   Orages  Brouillard  Fortes neiges  Fortes précipitations  Vent > 20 kt
SIGMETs :   Divers  Orages  Givrage  Turbulence  Onde Orograph.  Cendres Volcan.







- Altitude de l'aérodrome : 41 ft


LIRE - Pratica di Mare Air Base Pomezia

DERNIER METAR :
  • 181055Z 03010KT CAVOK 11/01 Q1024 RMK SKC VIS MIN 9999 WIND THR13 04010KT WIND THR31 /////KT BLU

METARs EXPIRÉS :
  • 180955Z 02010KT CAVOK 10/01 Q1023 RMK SKC VIS MIN 9999 WIND THR13 04011KT WIND THR31 /////KT BLU
  • 180855Z 02011KT CAVOK 08/01 Q1024 RMK SKC VIS MIN 9999 WIND THR13 03011KT WIND THR31 /////KT BLU

TAF TAF LIRE
Valide du 18 à 12h jusqu'au 18 à 21h UTC


181100Z 1812/1821 02012KT CAVOK
Pas de NOTAMs connus pour ce terrain.
2 SIGMETs publiés pour la FIR Roma (LIRR) :
 
Turbulence forte
LIRR SIGMET 4 VALID 181135/181335 LIIB
LIRR ROMA FIR SEV TURB FCST WI N4212 E01338 - N4119 E01249 - N3946 E01504 - N4007 E01537 - N4113 E01512 - N4127 E01416 - N4212 E01338 FL020/080 STNR WKN=
Turbulence forte
LIRR SIGMET 3 VALID 180935/181135 LIIB
LIRR ROMA FIR SEV TURB FCST WI N4250 E01301 - N4215 E01144 - N4111 E01201 - N3909 E01513 - N4007 E01537 - N4113 E01512 - N4127 E01416 - N4250 E01301 FL020/080 STNR WKN=



MET'MAP, la Météo Aéronautique d'un coup d'oeil ! - Copyright ORBIFLY Décembre 2007 - Disclaimer

ORBIFLY MET'MAP TEAM :

Programmation & Développement : Alexandra Zaïnal
Conception & Développement : Baudouin d'Aumeries
Co-Programmation & Développement : Marc-Olivier Méhu
Soutien technique & logistique : Manuel Goepfert

Contact : metmap@orbifly.com




SOURCES & CREDITS :

   NOAA